Main page
METAR-TAF:

METAR-TAF

Airports :

RAF Cranwell

Cranwell, England

latitude: 53-02N, longitude: 000-30W, elevation: 67 m

Current weather observation

The report was made 24 minutes ago, at 07:20 UTC
Wind 5 kt from the North
Temperature 13°C
Humidity 77%
Pressure 1023 hPa
Visibility 10 km or more
Few clouds at a height of 4000 ft
Broken clouds at a height of 25000 ft

METAR: EGYD 150720Z 35005KT 9999 FEW040 BKN250 13/09 Q1023 NOSIG RMK BLU BLU

Time: 08:44 (07:44 UTC)

Forecast

The report was made 2 hours and 37 minutes ago, at 05:07 UTC
Forecast valid from 15 at 06 UTC to 15 at 15 UTC
Wind 5 kt from variable directions
Visibility 10 km or more
Scattered clouds at a height of 3500 ft

TAF: EGYD 150507Z 1506/1515 VRB05KT 9999 SCT035

Weather observations and forecasts of more than 4000 airports (METAR and TAF reports).

The available stations are represented by yellow and red dots on the map.

Hover mouse over dot to see the name of the station.

Then click to see weather observations and forecasts.

To change the map : click on the green buttons with a black cross to zoom in, on the green button with a dash to zoom out, or on the green arrows for adjacent maps.


METAR-TAF: